sensor_id;sensor_type;location;lat;lon;timestamp;temperature;humidity
25192;DHT22;13143;50.924;5.320;2024-02-21T00:00:58;10.50;99.90
25192;DHT22;13143;50.924;5.320;2024-02-21T00:03:25;10.50;99.90
25192;DHT22;13143;50.924;5.320;2024-02-21T00:05:52;10.50;99.90
25192;DHT22;13143;50.924;5.320;2024-02-21T00:08:19;10.50;99.90
25192;DHT22;13143;50.924;5.320;2024-02-21T00:10:46;10.50;99.90
25192;DHT22;13143;50.924;5.320;2024-02-21T00:13:14;10.50;99.90
25192;DHT22;13143;50.924;5.320;2024-02-21T00:15:42;10.60;99.90
25192;DHT22;13143;50.924;5.320;2024-02-21T00:18:09;10.60;99.90
25192;DHT22;13143;50.924;5.320;2024-02-21T00:20:38;10.60;99.90
25192;DHT22;13143;50.924;5.320;2024-02-21T00:23:05;10.60;99.90
25192;DHT22;13143;50.924;5.320;2024-02-21T00:25:32;10.50;99.90
25192;DHT22;13143;50.924;5.320;2024-02-21T00:27:59;10.50;99.90
25192;DHT22;13143;50.924;5.320;2024-02-21T00:30:26;10.50;99.90
25192;DHT22;13143;50.924;5.320;2024-02-21T00:32:54;10.50;99.90
25192;DHT22;13143;50.924;5.320;2024-02-21T00:35:22;10.50;99.90
25192;DHT22;13143;50.924;5.320;2024-02-21T00:37:49;10.50;99.90
25192;DHT22;13143;50.924;5.320;2024-02-21T00:40:16;10.60;99.90
25192;DHT22;13143;50.924;5.320;2024-02-21T00:42:47;10.60;99.90
25192;DHT22;13143;50.924;5.320;2024-02-21T00:45:14;10.50;99.90
25192;DHT22;13143;50.924;5.320;2024-02-21T00:47:41;10.50;99.90
25192;DHT22;13143;50.924;5.320;2024-02-21T00:50:09;10.50;99.90
25192;DHT22;13143;50.924;5.320;2024-02-21T00:52:36;10.50;99.90
25192;DHT22;13143;50.924;5.320;2024-02-21T00:55:04;10.50;99.90
25192;DHT22;13143;50.924;5.320;2024-02-21T00:57:32;10.50;99.90
25192;DHT22;13143;50.924;5.320;2024-02-21T00:59:59;10.50;99.90
25192;DHT22;13143;50.924;5.320;2024-02-21T01:02:26;10.50;99.90
25192;DHT22;13143;50.924;5.320;2024-02-21T01:04:53;10.60;99.90
25192;DHT22;13143;50.924;5.320;2024-02-21T01:07:21;10.60;99.90
25192;DHT22;13143;50.924;5.320;2024-02-21T01:09:48;10.50;99.90
25192;DHT22;13143;50.924;5.320;2024-02-21T01:12:15;10.60;99.90
25192;DHT22;13143;50.924;5.320;2024-02-21T01:14:43;10.60;99.90
25192;DHT22;13143;50.924;5.320;2024-02-21T01:17:12;10.50;99.90
25192;DHT22;13143;50.924;5.320;2024-02-21T01:19:39;10.60;99.90
25192;DHT22;13143;50.924;5.320;2024-02-21T01:22:06;10.60;99.90
25192;DHT22;13143;50.924;5.320;2024-02-21T01:24:33;10.60;99.90
25192;DHT22;13143;50.924;5.320;2024-02-21T01:27:01;10.50;99.90
25192;DHT22;13143;50.924;5.320;2024-02-21T01:29:28;10.60;99.90
25192;DHT22;13143;50.924;5.320;2024-02-21T01:31:55;10.50;99.90
25192;DHT22;13143;50.924;5.320;2024-02-21T01:34:22;10.50;99.90
25192;DHT22;13143;50.924;5.320;2024-02-21T01:36:49;10.60;99.90
25192;DHT22;13143;50.924;5.320;2024-02-21T01:39:17;10.50;99.90
25192;DHT22;13143;50.924;5.320;2024-02-21T01:41:44;10.50;99.90
25192;DHT22;13143;50.924;5.320;2024-02-21T01:44:11;10.60;99.90
25192;DHT22;13143;50.924;5.320;2024-02-21T01:46:38;10.60;99.90
25192;DHT22;13143;50.924;5.320;2024-02-21T01:49:06;10.50;99.90
25192;DHT22;13143;50.924;5.320;2024-02-21T01:51:33;10.60;99.90
25192;DHT22;13143;50.924;5.320;2024-02-21T01:54:01;10.60;99.90
25192;DHT22;13143;50.924;5.320;2024-02-21T01:56:28;10.50;99.90
25192;DHT22;13143;50.924;5.320;2024-02-21T01:58:56;10.50;99.90
25192;DHT22;13143;50.924;5.320;2024-02-21T02:01:23;10.50;99.90
25192;DHT22;13143;50.924;5.320;2024-02-21T02:03:51;10.50;99.90
25192;DHT22;13143;50.924;5.320;2024-02-21T02:06:19;10.50;99.90
25192;DHT22;13143;50.924;5.320;2024-02-21T02:08:47;10.50;99.90
25192;DHT22;13143;50.924;5.320;2024-02-21T02:11:14;10.60;99.90
25192;DHT22;13143;50.924;5.320;2024-02-21T02:13:42;10.50;99.90
25192;DHT22;13143;50.924;5.320;2024-02-21T02:16:09;10.50;99.90
25192;DHT22;13143;50.924;5.320;2024-02-21T02:18:36;10.50;99.90
25192;DHT22;13143;50.924;5.320;2024-02-21T02:21:08;10.50;99.90
25192;DHT22;13143;50.924;5.320;2024-02-21T02:23:37;10.50;99.90
25192;DHT22;13143;50.924;5.320;2024-02-21T02:26:05;10.50;99.90
25192;DHT22;13143;50.924;5.320;2024-02-21T02:28:34;10.50;99.90
25192;DHT22;13143;50.924;5.320;2024-02-21T02:31:01;10.50;99.90
25192;DHT22;13143;50.924;5.320;2024-02-21T02:33:28;10.60;99.90
25192;DHT22;13143;50.924;5.320;2024-02-21T02:35:55;10.50;99.90
25192;DHT22;13143;50.924;5.320;2024-02-21T02:38:22;10.50;99.90
25192;DHT22;13143;50.924;5.320;2024-02-21T02:40:49;10.50;99.90
25192;DHT22;13143;50.924;5.320;2024-02-21T02:43:17;10.50;99.90
25192;DHT22;13143;50.924;5.320;2024-02-21T02:45:44;10.50;99.90
25192;DHT22;13143;50.924;5.320;2024-02-21T02:48:11;10.50;99.90
25192;DHT22;13143;50.924;5.320;2024-02-21T02:50:38;10.60;99.90
25192;DHT22;13143;50.924;5.320;2024-02-21T02:53:05;10.50;99.90
25192;DHT22;13143;50.924;5.320;2024-02-21T02:55:32;10.50;99.90
25192;DHT22;13143;50.924;5.320;2024-02-21T02:57:59;10.50;99.90
25192;DHT22;13143;50.924;5.320;2024-02-21T03:00:27;10.50;99.90
25192;DHT22;13143;50.924;5.320;2024-02-21T03:02:54;10.50;99.90
25192;DHT22;13143;50.924;5.320;2024-02-21T03:05:22;10.50;99.90
25192;DHT22;13143;50.924;5.320;2024-02-21T03:07:49;10.50;99.90
25192;DHT22;13143;50.924;5.320;2024-02-21T03:10:17;10.50;99.90
25192;DHT22;13143;50.924;5.320;2024-02-21T03:12:45;10.50;99.90
25192;DHT22;13143;50.924;5.320;2024-02-21T03:15:13;10.50;99.90
25192;DHT22;13143;50.924;5.320;2024-02-21T03:17:41;10.50;99.90
25192;DHT22;13143;50.924;5.320;2024-02-21T03:20:09;10.50;99.90
25192;DHT22;13143;50.924;5.320;2024-02-21T03:22:39;10.50;99.90
25192;DHT22;13143;50.924;5.320;2024-02-21T03:25:10;10.50;99.90
25192;DHT22;13143;50.924;5.320;2024-02-21T03:27:39;10.50;99.90
25192;DHT22;13143;50.924;5.320;2024-02-21T03:30:07;10.50;99.90
25192;DHT22;13143;50.924;5.320;2024-02-21T03:32:36;10.50;99.90
25192;DHT22;13143;50.924;5.320;2024-02-21T03:35:05;10.50;99.90
25192;DHT22;13143;50.924;5.320;2024-02-21T03:37:32;10.50;99.90
25192;DHT22;13143;50.924;5.320;2024-02-21T03:39:59;10.50;99.90
25192;DHT22;13143;50.924;5.320;2024-02-21T03:42:26;10.50;99.90
25192;DHT22;13143;50.924;5.320;2024-02-21T03:44:56;10.40;99.90
25192;DHT22;13143;50.924;5.320;2024-02-21T03:47:23;10.40;99.90
25192;DHT22;13143;50.924;5.320;2024-02-21T03:49:51;10.40;99.90
25192;DHT22;13143;50.924;5.320;2024-02-21T03:52:18;10.40;99.90
25192;DHT22;13143;50.924;5.320;2024-02-21T03:54:45;10.40;99.90
25192;DHT22;13143;50.924;5.320;2024-02-21T03:57:12;10.40;99.90
25192;DHT22;13143;50.924;5.320;2024-02-21T03:59:39;10.40;99.90
25192;DHT22;13143;50.924;5.320;2024-02-21T04:02:10;10.30;99.90
25192;DHT22;13143;50.924;5.320;2024-02-21T04:04:37;10.40;99.90
25192;DHT22;13143;50.924;5.320;2024-02-21T04:07:05;10.40;99.90
25192;DHT22;13143;50.924;5.320;2024-02-21T04:09:36;10.30;99.90
25192;DHT22;13143;50.924;5.320;2024-02-21T04:12:03;10.40;99.90
25192;DHT22;13143;50.924;5.320;2024-02-21T04:14:30;10.30;99.90
25192;DHT22;13143;50.924;5.320;2024-02-21T04:16:57;10.40;99.90
25192;DHT22;13143;50.924;5.320;2024-02-21T04:19:24;10.40;99.90
25192;DHT22;13143;50.924;5.320;2024-02-21T04:21:52;10.30;99.90
25192;DHT22;13143;50.924;5.320;2024-02-21T04:24:19;10.30;99.90
25192;DHT22;13143;50.924;5.320;2024-02-21T04:26:46;10.30;99.90
25192;DHT22;13143;50.924;5.320;2024-02-21T04:29:13;10.30;99.90
25192;DHT22;13143;50.924;5.320;2024-02-21T04:31:40;10.30;99.90
25192;DHT22;13143;50.924;5.320;2024-02-21T04:34:07;10.30;99.90
25192;DHT22;13143;50.924;5.320;2024-02-21T04:36:35;10.30;99.90
25192;DHT22;13143;50.924;5.320;2024-02-21T04:39:02;10.30;99.90
25192;DHT22;13143;50.924;5.320;2024-02-21T04:41:29;10.30;99.90
25192;DHT22;13143;50.924;5.320;2024-02-21T04:43:56;10.30;99.90
25192;DHT22;13143;50.924;5.320;2024-02-21T04:46:23;10.30;99.90
25192;DHT22;13143;50.924;5.320;2024-02-21T04:48:51;10.30;99.90
25192;DHT22;13143;50.924;5.320;2024-02-21T04:51:18;10.20;99.90
25192;DHT22;13143;50.924;5.320;2024-02-21T04:53:45;10.30;99.90
25192;DHT22;13143;50.924;5.320;2024-02-21T04:56:13;10.20;99.90
25192;DHT22;13143;50.924;5.320;2024-02-21T04:58:40;10.20;99.90
25192;DHT22;13143;50.924;5.320;2024-02-21T05:01:07;10.20;99.90
25192;DHT22;13143;50.924;5.320;2024-02-21T05:03:35;10.20;99.90
25192;DHT22;13143;50.924;5.320;2024-02-21T05:06:02;10.20;99.90
25192;DHT22;13143;50.924;5.320;2024-02-21T05:08:29;10.20;99.90
25192;DHT22;13143;50.924;5.320;2024-02-21T05:10:56;10.20;99.90
25192;DHT22;13143;50.924;5.320;2024-02-21T05:13:24;10.20;99.90
25192;DHT22;13143;50.924;5.320;2024-02-21T05:15:51;10.20;99.90
25192;DHT22;13143;50.924;5.320;2024-02-21T05:18:18;10.20;99.90
25192;DHT22;13143;50.924;5.320;2024-02-21T05:20:46;10.20;99.90
25192;DHT22;13143;50.924;5.320;2024-02-21T05:23:13;10.20;99.90
25192;DHT22;13143;50.924;5.320;2024-02-21T05:25:41;10.20;99.90
25192;DHT22;13143;50.924;5.320;2024-02-21T05:28:08;10.20;99.90
25192;DHT22;13143;50.924;5.320;2024-02-21T05:30:35;10.10;99.90
25192;DHT22;13143;50.924;5.320;2024-02-21T05:33:06;10.10;99.90
25192;DHT22;13143;50.924;5.320;2024-02-21T05:35:34;10.10;99.90
25192;DHT22;13143;50.924;5.320;2024-02-21T05:38:02;10.10;99.90
25192;DHT22;13143;50.924;5.320;2024-02-21T05:40:33;10.10;99.90
25192;DHT22;13143;50.924;5.320;2024-02-21T05:43:00;10.10;99.90
25192;DHT22;13143;50.924;5.320;2024-02-21T05:45:27;10.10;99.90
25192;DHT22;13143;50.924;5.320;2024-02-21T05:47:54;10.10;99.90
25192;DHT22;13143;50.924;5.320;2024-02-21T05:50:22;10.10;99.90
25192;DHT22;13143;50.924;5.320;2024-02-21T05:52:54;10.10;99.90
25192;DHT22;13143;50.924;5.320;2024-02-21T05:55:22;10.10;99.90
25192;DHT22;13143;50.924;5.320;2024-02-21T05:57:50;10.10;99.90
25192;DHT22;13143;50.924;5.320;2024-02-21T06:00:20;10.10;99.90
25192;DHT22;13143;50.924;5.320;2024-02-21T06:02:47;10.10;99.90
25192;DHT22;13143;50.924;5.320;2024-02-21T06:05:15;10.10;99.90
25192;DHT22;13143;50.924;5.320;2024-02-21T06:07:42;10.10;99.90
25192;DHT22;13143;50.924;5.320;2024-02-21T06:10:09;10.10;99.90
25192;DHT22;13143;50.924;5.320;2024-02-21T06:12:37;10.10;99.90
25192;DHT22;13143;50.924;5.320;2024-02-21T06:15:04;10.10;99.90
25192;DHT22;13143;50.924;5.320;2024-02-21T06:17:31;10.10;99.90
25192;DHT22;13143;50.924;5.320;2024-02-21T06:19:58;10.00;99.90
25192;DHT22;13143;50.924;5.320;2024-02-21T06:22:26;10.00;99.90
25192;DHT22;13143;50.924;5.320;2024-02-21T06:24:53;10.00;99.90
25192;DHT22;13143;50.924;5.320;2024-02-21T06:27:21;10.00;99.90
25192;DHT22;13143;50.924;5.320;2024-02-21T06:29:48;10.10;99.90
25192;DHT22;13143;50.924;5.320;2024-02-21T06:32:15;10.00;99.90
25192;DHT22;13143;50.924;5.320;2024-02-21T06:34:42;10.00;99.90
25192;DHT22;13143;50.924;5.320;2024-02-21T06:37:10;10.10;99.90
25192;DHT22;13143;50.924;5.320;2024-02-21T06:39:38;10.10;99.90
25192;DHT22;13143;50.924;5.320;2024-02-21T06:42:07;10.10;99.90
25192;DHT22;13143;50.924;5.320;2024-02-21T06:44:34;10.10;99.90
25192;DHT22;13143;50.924;5.320;2024-02-21T06:47:07;10.00;99.90
25192;DHT22;13143;50.924;5.320;2024-02-21T06:49:35;10.00;99.90
25192;DHT22;13143;50.924;5.320;2024-02-21T06:52:04;9.90;99.90
25192;DHT22;13143;50.924;5.320;2024-02-21T06:54:32;9.90;99.90
25192;DHT22;13143;50.924;5.320;2024-02-21T06:57:00;9.90;99.90
25192;DHT22;13143;50.924;5.320;2024-02-21T06:59:29;9.90;99.90
25192;DHT22;13143;50.924;5.320;2024-02-21T07:01:56;9.90;99.90
25192;DHT22;13143;50.924;5.320;2024-02-21T07:04:23;9.90;99.90
25192;DHT22;13143;50.924;5.320;2024-02-21T07:06:50;9.90;99.90
25192;DHT22;13143;50.924;5.320;2024-02-21T07:09:18;9.90;99.90
25192;DHT22;13143;50.924;5.320;2024-02-21T07:11:45;9.90;99.90
25192;DHT22;13143;50.924;5.320;2024-02-21T07:14:14;9.90;99.90
25192;DHT22;13143;50.924;5.320;2024-02-21T07:16:42;9.90;99.90
25192;DHT22;13143;50.924;5.320;2024-02-21T07:19:09;9.90;99.90
25192;DHT22;13143;50.924;5.320;2024-02-21T07:21:36;9.90;99.90
25192;DHT22;13143;50.924;5.320;2024-02-21T07:24:09;9.90;99.90
25192;DHT22;13143;50.924;5.320;2024-02-21T07:26:36;9.80;99.90
25192;DHT22;13143;50.924;5.320;2024-02-21T07:29:03;9.80;99.90
25192;DHT22;13143;50.924;5.320;2024-02-21T07:31:30;9.80;99.90
25192;DHT22;13143;50.924;5.320;2024-02-21T07:33:58;9.80;99.90
25192;DHT22;13143;50.924;5.320;2024-02-21T07:36:29;9.80;99.90
25192;DHT22;13143;50.924;5.320;2024-02-21T07:38:57;9.80;99.90
25192;DHT22;13143;50.924;5.320;2024-02-21T07:41:27;9.80;99.90
25192;DHT22;13143;50.924;5.320;2024-02-21T07:43:58;9.70;99.90
25192;DHT22;13143;50.924;5.320;2024-02-21T07:46:25;9.80;99.90
25192;DHT22;13143;50.924;5.320;2024-02-21T07:48:53;9.80;99.90
25192;DHT22;13143;50.924;5.320;2024-02-21T07:51:20;9.80;99.90
25192;DHT22;13143;50.924;5.320;2024-02-21T07:53:47;9.70;99.90
25192;DHT22;13143;50.924;5.320;2024-02-21T07:56:15;9.70;99.90
25192;DHT22;13143;50.924;5.320;2024-02-21T07:58:42;9.70;99.90
25192;DHT22;13143;50.924;5.320;2024-02-21T08:01:10;9.70;99.90
25192;DHT22;13143;50.924;5.320;2024-02-21T08:03:38;9.70;99.90
25192;DHT22;13143;50.924;5.320;2024-02-21T08:06:05;9.70;99.90
25192;DHT22;13143;50.924;5.320;2024-02-21T08:08:32;9.70;99.90
25192;DHT22;13143;50.924;5.320;2024-02-21T08:10:59;9.70;99.90
25192;DHT22;13143;50.924;5.320;2024-02-21T08:13:27;9.70;99.90
25192;DHT22;13143;50.924;5.320;2024-02-21T08:15:56;9.70;99.90
25192;DHT22;13143;50.924;5.320;2024-02-21T08:18:24;9.70;99.90
25192;DHT22;13143;50.924;5.320;2024-02-21T08:20:51;9.70;99.90
25192;DHT22;13143;50.924;5.320;2024-02-21T08:23:19;9.70;99.90
25192;DHT22;13143;50.924;5.320;2024-02-21T08:25:46;9.70;99.90
25192;DHT22;13143;50.924;5.320;2024-02-21T08:28:14;9.70;99.90
25192;DHT22;13143;50.924;5.320;2024-02-21T08:30:42;9.70;99.90
25192;DHT22;13143;50.924;5.320;2024-02-21T08:33:15;9.70;99.90
25192;DHT22;13143;50.924;5.320;2024-02-21T08:35:43;9.70;99.90
25192;DHT22;13143;50.924;5.320;2024-02-21T08:38:10;9.70;99.90
25192;DHT22;13143;50.924;5.320;2024-02-21T08:40:37;9.70;99.90
25192;DHT22;13143;50.924;5.320;2024-02-21T08:43:04;9.70;99.90
25192;DHT22;13143;50.924;5.320;2024-02-21T08:45:31;9.70;99.90
25192;DHT22;13143;50.924;5.320;2024-02-21T08:47:59;9.70;99.90
25192;DHT22;13143;50.924;5.320;2024-02-21T08:50:26;9.70;99.90
25192;DHT22;13143;50.924;5.320;2024-02-21T08:52:55;9.70;99.90
25192;DHT22;13143;50.924;5.320;2024-02-21T08:55:23;9.70;99.90
25192;DHT22;13143;50.924;5.320;2024-02-21T08:57:51;9.70;99.90
25192;DHT22;13143;50.924;5.320;2024-02-21T09:00:18;9.80;99.90
25192;DHT22;13143;50.924;5.320;2024-02-21T09:02:51;9.80;99.90
25192;DHT22;13143;50.924;5.320;2024-02-21T09:05:18;9.80;99.90
25192;DHT22;13143;50.924;5.320;2024-02-21T09:07:46;9.70;99.90
25192;DHT22;13143;50.924;5.320;2024-02-21T09:10:13;9.80;99.90
25192;DHT22;13143;50.924;5.320;2024-02-21T09:12:41;9.80;99.90
25192;DHT22;13143;50.924;5.320;2024-02-21T09:15:08;9.80;99.90
25192;DHT22;13143;50.924;5.320;2024-02-21T09:17:35;9.80;99.90
25192;DHT22;13143;50.924;5.320;2024-02-21T09:20:02;9.80;99.90
25192;DHT22;13143;50.924;5.320;2024-02-21T09:22:30;9.80;99.90
25192;DHT22;13143;50.924;5.320;2024-02-21T09:25:01;9.80;99.90
25192;DHT22;13143;50.924;5.320;2024-02-21T09:27:30;9.80;99.90
25192;DHT22;13143;50.924;5.320;2024-02-21T09:29:57;9.80;99.90
25192;DHT22;13143;50.924;5.320;2024-02-21T09:32:25;9.80;99.90
25192;DHT22;13143;50.924;5.320;2024-02-21T09:34:52;9.80;99.90
25192;DHT22;13143;50.924;5.320;2024-02-21T09:37:26;9.80;99.90
25192;DHT22;13143;50.924;5.320;2024-02-21T09:39:54;9.80;99.90
25192;DHT22;13143;50.924;5.320;2024-02-21T09:42:21;9.90;99.90
25192;DHT22;13143;50.924;5.320;2024-02-21T09:44:51;9.90;99.90
25192;DHT22;13143;50.924;5.320;2024-02-21T09:47:24;9.90;99.90
25192;DHT22;13143;50.924;5.320;2024-02-21T09:49:51;9.90;99.90
25192;DHT22;13143;50.924;5.320;2024-02-21T09:52:20;9.90;99.90
25192;DHT22;13143;50.924;5.320;2024-02-21T09:54:47;9.90;99.90
25192;DHT22;13143;50.924;5.320;2024-02-21T09:57:16;9.90;99.90
25192;DHT22;13143;50.924;5.320;2024-02-21T09:59:43;9.90;99.90
25192;DHT22;13143;50.924;5.320;2024-02-21T10:02:12;9.90;99.90
25192;DHT22;13143;50.924;5.320;2024-02-21T10:04:40;10.00;99.90
25192;DHT22;13143;50.924;5.320;2024-02-21T10:07:08;10.00;99.90
25192;DHT22;13143;50.924;5.320;2024-02-21T10:09:35;10.00;99.90
25192;DHT22;13143;50.924;5.320;2024-02-21T10:12:10;10.00;99.90
25192;DHT22;13143;50.924;5.320;2024-02-21T10:14:39;10.00;99.90
25192;DHT22;13143;50.924;5.320;2024-02-21T10:17:06;10.00;99.90
25192;DHT22;13143;50.924;5.320;2024-02-21T10:19:38;10.00;99.90
25192;DHT22;13143;50.924;5.320;2024-02-21T10:22:08;10.10;99.90
25192;DHT22;13143;50.924;5.320;2024-02-21T10:24:37;10.10;99.90
25192;DHT22;13143;50.924;5.320;2024-02-21T10:27:10;10.10;99.90
25192;DHT22;13143;50.924;5.320;2024-02-21T10:29:39;10.10;99.90
25192;DHT22;13143;50.924;5.320;2024-02-21T10:32:11;10.10;99.90
25192;DHT22;13143;50.924;5.320;2024-02-21T10:34:41;10.20;99.90
25192;DHT22;13143;50.924;5.320;2024-02-21T10:37:11;10.20;99.90
25192;DHT22;13143;50.924;5.320;2024-02-21T10:39:39;10.30;99.90
25192;DHT22;13143;50.924;5.320;2024-02-21T10:42:07;10.30;99.90
25192;DHT22;13143;50.924;5.320;2024-02-21T10:44:38;10.20;99.90
25192;DHT22;13143;50.924;5.320;2024-02-21T10:47:11;10.30;99.90
25192;DHT22;13143;50.924;5.320;2024-02-21T10:49:41;10.30;99.90
25192;DHT22;13143;50.924;5.320;2024-02-21T10:55:25;10.30;99.90
25192;DHT22;13143;50.924;5.320;2024-02-21T10:57:54;10.30;99.90
25192;DHT22;13143;50.924;5.320;2024-02-21T11:00:22;10.40;99.90
25192;DHT22;13143;50.924;5.320;2024-02-21T11:02:54;10.40;99.90
25192;DHT22;13143;50.924;5.320;2024-02-21T11:05:21;10.40;99.90
25192;DHT22;13143;50.924;5.320;2024-02-21T11:07:50;10.40;99.90
25192;DHT22;13143;50.924;5.320;2024-02-21T11:10:25;10.50;99.90
25192;DHT22;13143;50.924;5.320;2024-02-21T11:13:08;10.40;99.90
25192;DHT22;13143;50.924;5.320;2024-02-21T11:15:36;10.50;99.90
25192;DHT22;13143;50.924;5.320;2024-02-21T11:18:03;10.50;99.90
25192;DHT22;13143;50.924;5.320;2024-02-21T11:20:37;10.50;99.90
25192;DHT22;13143;50.924;5.320;2024-02-21T11:23:05;10.60;99.90
25192;DHT22;13143;50.924;5.320;2024-02-21T11:25:32;10.60;99.90
25192;DHT22;13143;50.924;5.320;2024-02-21T11:28:02;10.60;99.90
25192;DHT22;13143;50.924;5.320;2024-02-21T11:30:36;10.70;99.90
25192;DHT22;13143;50.924;5.320;2024-02-21T11:33:08;10.70;99.90
25192;DHT22;13143;50.924;5.320;2024-02-21T11:35:36;10.70;99.90
25192;DHT22;13143;50.924;5.320;2024-02-21T11:38:13;10.70;99.90
25192;DHT22;13143;50.924;5.320;2024-02-21T11:40:45;10.70;99.90
25192;DHT22;13143;50.924;5.320;2024-02-21T11:43:13;10.70;99.90
25192;DHT22;13143;50.924;5.320;2024-02-21T11:45:40;10.70;99.90
25192;DHT22;13143;50.924;5.320;2024-02-21T11:48:07;10.80;99.90
25192;DHT22;13143;50.924;5.320;2024-02-21T11:50:35;10.80;99.90
25192;DHT22;13143;50.924;5.320;2024-02-21T11:53:04;10.80;99.90
25192;DHT22;13143;50.924;5.320;2024-02-21T11:55:31;10.80;99.90
25192;DHT22;13143;50.924;5.320;2024-02-21T11:57:58;10.80;99.90
25192;DHT22;13143;50.924;5.320;2024-02-21T12:00:26;10.90;99.90
25192;DHT22;13143;50.924;5.320;2024-02-21T12:02:54;10.90;99.90
25192;DHT22;13143;50.924;5.320;2024-02-21T12:05:22;10.90;99.90
25192;DHT22;13143;50.924;5.320;2024-02-21T12:07:50;11.00;99.90
25192;DHT22;13143;50.924;5.320;2024-02-21T12:10:17;10.90;99.90
25192;DHT22;13143;50.924;5.320;2024-02-21T12:12:44;11.00;99.90
25192;DHT22;13143;50.924;5.320;2024-02-21T12:15:11;11.00;99.90
25192;DHT22;13143;50.924;5.320;2024-02-21T12:17:40;11.00;99.90
25192;DHT22;13143;50.924;5.320;2024-02-21T12:20:08;11.00;99.90
25192;DHT22;13143;50.924;5.320;2024-02-21T12:22:42;11.00;99.90
25192;DHT22;13143;50.924;5.320;2024-02-21T12:25:20;11.10;99.90
25192;DHT22;13143;50.924;5.320;2024-02-21T12:27:53;11.10;99.90
25192;DHT22;13143;50.924;5.320;2024-02-21T12:30:21;11.10;99.90
25192;DHT22;13143;50.924;5.320;2024-02-21T12:32:48;11.10;99.90
25192;DHT22;13143;50.924;5.320;2024-02-21T12:35:15;11.10;99.90
25192;DHT22;13143;50.924;5.320;2024-02-21T12:37:44;11.10;99.90
25192;DHT22;13143;50.924;5.320;2024-02-21T12:40:11;11.10;99.90
25192;DHT22;13143;50.924;5.320;2024-02-21T12:42:41;11.20;99.90
25192;DHT22;13143;50.924;5.320;2024-02-21T12:45:08;11.10;99.90
25192;DHT22;13143;50.924;5.320;2024-02-21T12:47:36;11.10;99.90
25192;DHT22;13143;50.924;5.320;2024-02-21T12:50:03;11.20;99.90
25192;DHT22;13143;50.924;5.320;2024-02-21T12:52:34;11.20;99.90
25192;DHT22;13143;50.924;5.320;2024-02-21T12:55:01;11.20;99.90
25192;DHT22;13143;50.924;5.320;2024-02-21T12:57:28;11.20;99.90
25192;DHT22;13143;50.924;5.320;2024-02-21T12:59:55;11.30;99.90
25192;DHT22;13143;50.924;5.320;2024-02-21T13:02:22;11.20;99.90
25192;DHT22;13143;50.924;5.320;2024-02-21T13:04:50;11.30;99.90
25192;DHT22;13143;50.924;5.320;2024-02-21T13:07:17;11.30;99.90
25192;DHT22;13143;50.924;5.320;2024-02-21T13:09:45;11.30;99.90
25192;DHT22;13143;50.924;5.320;2024-02-21T13:12:12;11.30;99.90
25192;DHT22;13143;50.924;5.320;2024-02-21T13:14:40;11.30;99.90
25192;DHT22;13143;50.924;5.320;2024-02-21T13:17:10;11.30;99.90
25192;DHT22;13143;50.924;5.320;2024-02-21T13:19:38;11.30;99.90
25192;DHT22;13143;50.924;5.320;2024-02-21T13:22:06;11.30;99.90
25192;DHT22;13143;50.924;5.320;2024-02-21T13:24:34;11.30;99.90
25192;DHT22;13143;50.924;5.320;2024-02-21T13:27:01;11.30;99.90
25192;DHT22;13143;50.924;5.320;2024-02-21T13:29:28;11.30;99.90
25192;DHT22;13143;50.924;5.320;2024-02-21T13:31:56;11.40;99.90
25192;DHT22;13143;50.924;5.320;2024-02-21T13:34:23;11.40;99.90
25192;DHT22;13143;50.924;5.320;2024-02-21T13:36:51;11.30;99.90
25192;DHT22;13143;50.924;5.320;2024-02-21T13:39:18;11.30;99.90
25192;DHT22;13143;50.924;5.320;2024-02-21T13:41:46;11.40;99.90
25192;DHT22;13143;50.924;5.320;2024-02-21T13:44:13;11.40;99.90
25192;DHT22;13143;50.924;5.320;2024-02-21T13:46:40;11.40;99.90
25192;DHT22;13143;50.924;5.320;2024-02-21T13:49:08;11.40;99.90
25192;DHT22;13143;50.924;5.320;2024-02-21T13:51:35;11.40;99.90
25192;DHT22;13143;50.924;5.320;2024-02-21T13:54:04;11.40;99.90
25192;DHT22;13143;50.924;5.320;2024-02-21T13:56:31;11.40;99.90
25192;DHT22;13143;50.924;5.320;2024-02-21T13:58:58;11.50;99.90
25192;DHT22;13143;50.924;5.320;2024-02-21T14:01:27;11.50;99.90
25192;DHT22;13143;50.924;5.320;2024-02-21T14:03:59;11.40;99.90
25192;DHT22;13143;50.924;5.320;2024-02-21T14:06:26;11.50;99.90
25192;DHT22;13143;50.924;5.320;2024-02-21T14:08:53;11.40;99.90
25192;DHT22;13143;50.924;5.320;2024-02-21T14:11:21;11.50;99.90
25192;DHT22;13143;50.924;5.320;2024-02-21T14:13:48;11.50;99.90
25192;DHT22;13143;50.924;5.320;2024-02-21T14:16:15;11.50;99.90
25192;DHT22;13143;50.924;5.320;2024-02-21T14:18:42;11.50;99.90
25192;DHT22;13143;50.924;5.320;2024-02-21T14:21:13;11.50;99.90
25192;DHT22;13143;50.924;5.320;2024-02-21T14:23:40;11.50;99.90
25192;DHT22;13143;50.924;5.320;2024-02-21T14:26:07;11.50;99.90
25192;DHT22;13143;50.924;5.320;2024-02-21T14:28:35;11.40;99.90
25192;DHT22;13143;50.924;5.320;2024-02-21T14:31:03;11.50;99.90
25192;DHT22;13143;50.924;5.320;2024-02-21T14:33:31;11.50;99.90
25192;DHT22;13143;50.924;5.320;2024-02-21T14:35:58;11.50;99.90
25192;DHT22;13143;50.924;5.320;2024-02-21T14:38:25;11.50;99.90
25192;DHT22;13143;50.924;5.320;2024-02-21T14:40:52;11.50;99.90
25192;DHT22;13143;50.924;5.320;2024-02-21T14:43:19;11.50;99.90
25192;DHT22;13143;50.924;5.320;2024-02-21T14:45:48;11.50;99.90
25192;DHT22;13143;50.924;5.320;2024-02-21T14:48:16;11.50;99.90
25192;DHT22;13143;50.924;5.320;2024-02-21T14:50:44;11.50;99.90
25192;DHT22;13143;50.924;5.320;2024-02-21T14:53:11;11.50;99.90
25192;DHT22;13143;50.924;5.320;2024-02-21T14:55:38;11.50;99.90
25192;DHT22;13143;50.924;5.320;2024-02-21T14:58:06;11.50;99.90
25192;DHT22;13143;50.924;5.320;2024-02-21T15:00:34;11.60;99.90
25192;DHT22;13143;50.924;5.320;2024-02-21T15:03:02;11.50;99.90
25192;DHT22;13143;50.924;5.320;2024-02-21T15:05:29;11.50;99.90
25192;DHT22;13143;50.924;5.320;2024-02-21T15:07:58;11.50;99.90
25192;DHT22;13143;50.924;5.320;2024-02-21T15:10:25;11.50;99.90
25192;DHT22;13143;50.924;5.320;2024-02-21T15:12:53;11.50;99.90
25192;DHT22;13143;50.924;5.320;2024-02-21T15:15:21;11.50;99.90
25192;DHT22;13143;50.924;5.320;2024-02-21T15:17:48;11.50;99.90
25192;DHT22;13143;50.924;5.320;2024-02-21T15:20:15;11.50;99.90
25192;DHT22;13143;50.924;5.320;2024-02-21T15:22:43;11.50;99.90
25192;DHT22;13143;50.924;5.320;2024-02-21T15:25:11;11.40;99.90
25192;DHT22;13143;50.924;5.320;2024-02-21T15:27:42;11.40;99.90
25192;DHT22;13143;50.924;5.320;2024-02-21T15:30:13;11.50;99.90
25192;DHT22;13143;50.924;5.320;2024-02-21T15:32:41;11.40;99.90
25192;DHT22;13143;50.924;5.320;2024-02-21T15:35:12;11.40;99.90
25192;DHT22;13143;50.924;5.320;2024-02-21T15:37:40;11.40;99.90
25192;DHT22;13143;50.924;5.320;2024-02-21T15:40:08;11.40;99.90
25192;DHT22;13143;50.924;5.320;2024-02-21T15:42:35;11.40;99.90